sensor_id;sensor_type;location;lat;lon;timestamp;P1;durP1;ratioP1;P2;durP2;ratioP2
75990;SDS011;64673;52.276;10.560;2022-11-20T00:02:25;15.23;;;7.28;;
75990;SDS011;64673;52.276;10.560;2022-11-20T00:04:50;16.67;;;6.88;;
75990;SDS011;64673;52.276;10.560;2022-11-20T00:07:15;16.92;;;7.07;;
75990;SDS011;64673;52.276;10.560;2022-11-20T00:09:41;17.85;;;7.18;;
75990;SDS011;64673;52.276;10.560;2022-11-20T00:12:06;16.45;;;7.50;;
75990;SDS011;64673;52.276;10.560;2022-11-20T00:14:31;19.65;;;6.90;;
75990;SDS011;64673;52.276;10.560;2022-11-20T00:16:57;13.05;;;6.60;;
75990;SDS011;64673;52.276;10.560;2022-11-20T00:19:22;16.02;;;7.68;;
75990;SDS011;64673;52.276;10.560;2022-11-20T00:21:48;14.60;;;6.38;;
75990;SDS011;64673;52.276;10.560;2022-11-20T00:26:41;14.63;;;6.22;;
75990;SDS011;64673;52.276;10.560;2022-11-20T00:29:08;15.17;;;6.97;;
75990;SDS011;64673;52.276;10.560;2022-11-20T00:31:34;13.00;;;5.88;;
75990;SDS011;64673;52.276;10.560;2022-11-20T00:34:00;14.88;;;7.00;;
75990;SDS011;64673;52.276;10.560;2022-11-20T00:36:26;13.60;;;6.55;;
75990;SDS011;64673;52.276;10.560;2022-11-20T00:38:53;14.93;;;6.13;;
75990;SDS011;64673;52.276;10.560;2022-11-20T00:41:19;13.82;;;5.47;;
75990;SDS011;64673;52.276;10.560;2022-11-20T00:43:45;11.32;;;5.85;;
75990;SDS011;64673;52.276;10.560;2022-11-20T00:46:15;14.13;;;6.28;;
75990;SDS011;64673;52.276;10.560;2022-11-20T00:48:42;13.70;;;6.28;;
75990;SDS011;64673;52.276;10.560;2022-11-20T00:51:08;12.73;;;5.90;;
75990;SDS011;64673;52.276;10.560;2022-11-20T00:53:35;14.93;;;5.28;;
75990;SDS011;64673;52.276;10.560;2022-11-20T00:56:02;12.82;;;5.55;;
75990;SDS011;64673;52.276;10.560;2022-11-20T00:58:33;12.60;;;5.53;;
75990;SDS011;64673;52.276;10.560;2022-11-20T01:01:01;11.77;;;5.75;;
75990;SDS011;64673;52.276;10.560;2022-11-20T01:03:29;11.68;;;4.80;;
75990;SDS011;64673;52.276;10.560;2022-11-20T01:05:59;12.35;;;5.47;;
75990;SDS011;64673;52.276;10.560;2022-11-20T01:08:28;13.80;;;6.22;;
75990;SDS011;64673;52.276;10.560;2022-11-20T01:10:58;13.13;;;5.63;;
75990;SDS011;64673;52.276;10.560;2022-11-20T01:13:24;13.27;;;6.07;;
75990;SDS011;64673;52.276;10.560;2022-11-20T01:16:02;14.77;;;5.07;;
75990;SDS011;64673;52.276;10.560;2022-11-20T01:18:39;9.85;;;5.15;;
75990;SDS011;64673;52.276;10.560;2022-11-20T01:21:07;12.88;;;5.57;;
75990;SDS011;64673;52.276;10.560;2022-11-20T01:23:35;11.55;;;4.88;;
75990;SDS011;64673;52.276;10.560;2022-11-20T01:26:03;9.90;;;4.72;;
75990;SDS011;64673;52.276;10.560;2022-11-20T01:28:29;13.13;;;5.93;;
75990;SDS011;64673;52.276;10.560;2022-11-20T01:30:55;13.40;;;5.00;;
75990;SDS011;64673;52.276;10.560;2022-11-20T01:33:21;12.85;;;5.60;;
75990;SDS011;64673;52.276;10.560;2022-11-20T01:35:46;12.13;;;6.03;;
75990;SDS011;64673;52.276;10.560;2022-11-20T01:38:11;11.50;;;5.10;;
75990;SDS011;64673;52.276;10.560;2022-11-20T01:40:36;12.52;;;5.57;;
75990;SDS011;64673;52.276;10.560;2022-11-20T01:43:18;12.90;;;5.18;;
75990;SDS011;64673;52.276;10.560;2022-11-20T01:48:13;11.27;;;4.88;;
75990;SDS011;64673;52.276;10.560;2022-11-20T01:50:39;14.38;;;5.72;;
75990;SDS011;64673;52.276;10.560;2022-11-20T01:53:07;13.07;;;5.55;;
75990;SDS011;64673;52.276;10.560;2022-11-20T01:55:42;13.27;;;6.00;;
75990;SDS011;64673;52.276;10.560;2022-11-20T01:58:12;14.48;;;5.75;;
75990;SDS011;64673;52.276;10.560;2022-11-20T02:00:38;14.90;;;6.28;;
75990;SDS011;64673;52.276;10.560;2022-11-20T02:03:04;12.15;;;5.70;;
75990;SDS011;64673;52.276;10.560;2022-11-20T02:05:34;10.95;;;5.40;;
75990;SDS011;64673;52.276;10.560;2022-11-20T02:08:04;13.75;;;5.88;;
75990;SDS011;64673;52.276;10.560;2022-11-20T02:10:31;15.45;;;6.28;;
75990;SDS011;64673;52.276;10.560;2022-11-20T02:12:57;14.68;;;6.03;;
75990;SDS011;64673;52.276;10.560;2022-11-20T02:15:41;17.75;;;6.97;;
75990;SDS011;64673;52.276;10.560;2022-11-20T02:18:07;15.70;;;6.47;;
75990;SDS011;64673;52.276;10.560;2022-11-20T02:20:34;14.10;;;6.43;;
75990;SDS011;64673;52.276;10.560;2022-11-20T02:25:41;12.77;;;5.43;;
75990;SDS011;64673;52.276;10.560;2022-11-20T02:28:08;12.07;;;6.10;;
75990;SDS011;64673;52.276;10.560;2022-11-20T02:30:33;17.60;;;7.55;;
75990;SDS011;64673;52.276;10.560;2022-11-20T02:32:58;11.73;;;4.97;;
75990;SDS011;64673;52.276;10.560;2022-11-20T02:37:50;13.27;;;6.43;;
75990;SDS011;64673;52.276;10.560;2022-11-20T02:40:17;12.00;;;5.63;;
75990;SDS011;64673;52.276;10.560;2022-11-20T02:42:42;18.02;;;6.75;;
75990;SDS011;64673;52.276;10.560;2022-11-20T02:45:08;14.93;;;5.97;;
75990;SDS011;64673;52.276;10.560;2022-11-20T02:47:33;12.45;;;5.70;;
75990;SDS011;64673;52.276;10.560;2022-11-20T02:49:59;13.10;;;5.72;;
75990;SDS011;64673;52.276;10.560;2022-11-20T02:52:24;11.88;;;5.60;;
75990;SDS011;64673;52.276;10.560;2022-11-20T02:54:50;11.68;;;5.78;;
75990;SDS011;64673;52.276;10.560;2022-11-20T02:57:16;11.93;;;5.53;;
75990;SDS011;64673;52.276;10.560;2022-11-20T02:59:41;17.50;;;6.45;;
75990;SDS011;64673;52.276;10.560;2022-11-20T03:02:06;12.70;;;6.32;;
75990;SDS011;64673;52.276;10.560;2022-11-20T03:04:32;14.00;;;6.00;;
75990;SDS011;64673;52.276;10.560;2022-11-20T03:06:57;13.23;;;6.07;;
75990;SDS011;64673;52.276;10.560;2022-11-20T03:09:22;15.40;;;5.90;;
75990;SDS011;64673;52.276;10.560;2022-11-20T03:11:48;15.52;;;5.53;;
75990;SDS011;64673;52.276;10.560;2022-11-20T03:14:13;13.77;;;6.10;;
75990;SDS011;64673;52.276;10.560;2022-11-20T03:16:39;14.80;;;6.00;;
75990;SDS011;64673;52.276;10.560;2022-11-20T03:19:04;15.50;;;6.18;;
75990;SDS011;64673;52.276;10.560;2022-11-20T03:21:32;12.90;;;5.30;;
75990;SDS011;64673;52.276;10.560;2022-11-20T03:23:58;12.10;;;5.55;;
75990;SDS011;64673;52.276;10.560;2022-11-20T03:26:24;14.13;;;5.72;;
75990;SDS011;64673;52.276;10.560;2022-11-20T03:28:52;13.35;;;5.60;;
75990;SDS011;64673;52.276;10.560;2022-11-20T03:31:29;12.18;;;6.07;;
75990;SDS011;64673;52.276;10.560;2022-11-20T03:33:57;10.23;;;5.40;;
75990;SDS011;64673;52.276;10.560;2022-11-20T03:36:23;10.98;;;5.22;;
75990;SDS011;64673;52.276;10.560;2022-11-20T03:38:49;12.82;;;5.85;;
75990;SDS011;64673;52.276;10.560;2022-11-20T03:41:18;13.23;;;5.82;;
75990;SDS011;64673;52.276;10.560;2022-11-20T03:43:50;12.00;;;5.38;;
75990;SDS011;64673;52.276;10.560;2022-11-20T03:46:19;10.48;;;5.35;;
75990;SDS011;64673;52.276;10.560;2022-11-20T03:48:45;12.55;;;5.05;;
75990;SDS011;64673;52.276;10.560;2022-11-20T03:51:12;11.50;;;4.90;;
75990;SDS011;64673;52.276;10.560;2022-11-20T03:53:42;11.55;;;5.32;;
75990;SDS011;64673;52.276;10.560;2022-11-20T03:56:08;13.68;;;5.93;;
75990;SDS011;64673;52.276;10.560;2022-11-20T03:58:37;13.23;;;5.43;;
75990;SDS011;64673;52.276;10.560;2022-11-20T04:01:13;14.55;;;5.55;;
75990;SDS011;64673;52.276;10.560;2022-11-20T04:03:41;12.75;;;5.53;;
75990;SDS011;64673;52.276;10.560;2022-11-20T04:06:12;13.50;;;5.10;;
75990;SDS011;64673;52.276;10.560;2022-11-20T04:08:42;12.95;;;5.50;;
75990;SDS011;64673;52.276;10.560;2022-11-20T04:11:18;9.73;;;4.45;;
75990;SDS011;64673;52.276;10.560;2022-11-20T04:13:46;12.95;;;5.40;;
75990;SDS011;64673;52.276;10.560;2022-11-20T04:16:13;14.63;;;6.15;;
75990;SDS011;64673;52.276;10.560;2022-11-20T04:18:39;11.70;;;5.18;;
75990;SDS011;64673;52.276;10.560;2022-11-20T04:21:04;15.38;;;5.35;;
75990;SDS011;64673;52.276;10.560;2022-11-20T04:23:30;12.70;;;5.15;;
75990;SDS011;64673;52.276;10.560;2022-11-20T04:26:07;12.63;;;5.35;;
75990;SDS011;64673;52.276;10.560;2022-11-20T04:28:33;12.45;;;5.38;;
75990;SDS011;64673;52.276;10.560;2022-11-20T04:31:03;13.98;;;5.65;;
75990;SDS011;64673;52.276;10.560;2022-11-20T04:33:36;12.50;;;5.10;;
75990;SDS011;64673;52.276;10.560;2022-11-20T04:36:02;12.15;;;5.25;;
75990;SDS011;64673;52.276;10.560;2022-11-20T04:38:30;11.93;;;5.03;;
75990;SDS011;64673;52.276;10.560;2022-11-20T04:40:56;11.43;;;4.50;;
75990;SDS011;64673;52.276;10.560;2022-11-20T04:43:23;14.68;;;5.43;;
75990;SDS011;64673;52.276;10.560;2022-11-20T04:45:52;14.73;;;5.60;;
75990;SDS011;64673;52.276;10.560;2022-11-20T04:48:18;13.40;;;5.18;;
75990;SDS011;64673;52.276;10.560;2022-11-20T04:50:43;12.85;;;5.45;;
75990;SDS011;64673;52.276;10.560;2022-11-20T04:53:09;11.93;;;5.18;;
75990;SDS011;64673;52.276;10.560;2022-11-20T04:55:34;12.70;;;5.18;;
75990;SDS011;64673;52.276;10.560;2022-11-20T04:57:59;12.35;;;5.28;;
75990;SDS011;64673;52.276;10.560;2022-11-20T05:00:26;12.15;;;4.93;;
75990;SDS011;64673;52.276;10.560;2022-11-20T05:02:51;13.50;;;5.18;;
75990;SDS011;64673;52.276;10.560;2022-11-20T05:05:17;14.55;;;5.05;;
75990;SDS011;64673;52.276;10.560;2022-11-20T05:07:42;14.43;;;5.82;;
75990;SDS011;64673;52.276;10.560;2022-11-20T05:10:08;13.98;;;5.90;;
75990;SDS011;64673;52.276;10.560;2022-11-20T05:12:33;12.95;;;5.53;;
75990;SDS011;64673;52.276;10.560;2022-11-20T05:14:59;14.88;;;5.72;;
75990;SDS011;64673;52.276;10.560;2022-11-20T05:17:24;12.97;;;6.10;;
75990;SDS011;64673;52.276;10.560;2022-11-20T05:19:49;14.40;;;6.10;;
75990;SDS011;64673;52.276;10.560;2022-11-20T05:22:14;11.98;;;5.38;;
75990;SDS011;64673;52.276;10.560;2022-11-20T05:24:40;13.18;;;5.15;;
75990;SDS011;64673;52.276;10.560;2022-11-20T05:27:05;9.53;;;5.17;;
75990;SDS011;64673;52.276;10.560;2022-11-20T05:29:30;14.32;;;6.45;;
75990;SDS011;64673;52.276;10.560;2022-11-20T05:31:56;14.75;;;5.72;;
75990;SDS011;64673;52.276;10.560;2022-11-20T05:34:21;14.57;;;6.53;;
75990;SDS011;64673;52.276;10.560;2022-11-20T05:36:46;14.13;;;5.60;;
75990;SDS011;64673;52.276;10.560;2022-11-20T05:39:12;10.82;;;4.88;;
75990;SDS011;64673;52.276;10.560;2022-11-20T05:41:37;13.88;;;5.43;;
75990;SDS011;64673;52.276;10.560;2022-11-20T05:44:02;13.13;;;5.18;;
75990;SDS011;64673;52.276;10.560;2022-11-20T05:46:28;14.75;;;5.97;;
75990;SDS011;64673;52.276;10.560;2022-11-20T05:48:53;13.60;;;5.85;;
75990;SDS011;64673;52.276;10.560;2022-11-20T05:51:19;11.27;;;5.25;;
75990;SDS011;64673;52.276;10.560;2022-11-20T05:53:45;15.68;;;6.50;;
75990;SDS011;64673;52.276;10.560;2022-11-20T05:56:11;13.68;;;4.93;;
75990;SDS011;64673;52.276;10.560;2022-11-20T05:58:39;14.10;;;5.70;;
75990;SDS011;64673;52.276;10.560;2022-11-20T06:01:15;13.45;;;6.10;;
75990;SDS011;64673;52.276;10.560;2022-11-20T06:03:43;15.18;;;5.28;;
75990;SDS011;64673;52.276;10.560;2022-11-20T06:06:11;12.32;;;5.40;;
75990;SDS011;64673;52.276;10.560;2022-11-20T06:08:37;15.00;;;5.70;;
75990;SDS011;64673;52.276;10.560;2022-11-20T06:11:03;14.93;;;6.35;;
75990;SDS011;64673;52.276;10.560;2022-11-20T06:13:29;13.80;;;5.90;;
75990;SDS011;64673;52.276;10.560;2022-11-20T06:15:55;12.75;;;5.55;;
75990;SDS011;64673;52.276;10.560;2022-11-20T06:18:20;10.23;;;4.90;;
75990;SDS011;64673;52.276;10.560;2022-11-20T06:20:46;11.17;;;4.83;;
75990;SDS011;64673;52.276;10.560;2022-11-20T06:23:11;12.68;;;5.47;;
75990;SDS011;64673;52.276;10.560;2022-11-20T06:25:41;15.93;;;6.53;;
75990;SDS011;64673;52.276;10.560;2022-11-20T06:28:07;14.38;;;5.10;;
75990;SDS011;64673;52.276;10.560;2022-11-20T06:30:33;13.90;;;5.95;;
75990;SDS011;64673;52.276;10.560;2022-11-20T06:32:59;11.50;;;5.10;;
75990;SDS011;64673;52.276;10.560;2022-11-20T06:35:25;13.80;;;5.47;;
75990;SDS011;64673;52.276;10.560;2022-11-20T06:37:50;13.82;;;5.38;;
75990;SDS011;64673;52.276;10.560;2022-11-20T06:40:15;11.73;;;4.70;;
75990;SDS011;64673;52.276;10.560;2022-11-20T06:42:41;11.93;;;5.38;;
75990;SDS011;64673;52.276;10.560;2022-11-20T06:45:06;11.40;;;4.55;;
75990;SDS011;64673;52.276;10.560;2022-11-20T06:47:32;12.93;;;5.22;;
75990;SDS011;64673;52.276;10.560;2022-11-20T06:49:58;12.77;;;5.18;;
75990;SDS011;64673;52.276;10.560;2022-11-20T06:52:23;10.95;;;5.07;;
75990;SDS011;64673;52.276;10.560;2022-11-20T06:54:49;10.35;;;4.88;;
75990;SDS011;64673;52.276;10.560;2022-11-20T06:57:14;12.70;;;5.65;;
75990;SDS011;64673;52.276;10.560;2022-11-20T06:59:39;11.93;;;4.78;;
75990;SDS011;64673;52.276;10.560;2022-11-20T07:02:05;12.23;;;5.40;;
75990;SDS011;64673;52.276;10.560;2022-11-20T07:04:30;10.70;;;4.82;;
75990;SDS011;64673;52.276;10.560;2022-11-20T07:06:55;13.27;;;4.77;;
75990;SDS011;64673;52.276;10.560;2022-11-20T07:09:21;10.85;;;4.93;;
75990;SDS011;64673;52.276;10.560;2022-11-20T07:11:46;12.27;;;5.33;;
75990;SDS011;64673;52.276;10.560;2022-11-20T07:14:11;12.07;;;5.55;;
75990;SDS011;64673;52.276;10.560;2022-11-20T07:16:36;14.63;;;6.20;;
75990;SDS011;64673;52.276;10.560;2022-11-20T07:19:02;11.02;;;5.57;;
75990;SDS011;64673;52.276;10.560;2022-11-20T07:21:27;14.18;;;5.93;;
75990;SDS011;64673;52.276;10.560;2022-11-20T07:23:53;9.70;;;5.30;;
75990;SDS011;64673;52.276;10.560;2022-11-20T07:26:18;12.02;;;5.40;;
75990;SDS011;64673;52.276;10.560;2022-11-20T07:28:44;13.57;;;5.72;;
75990;SDS011;64673;52.276;10.560;2022-11-20T07:31:10;14.50;;;5.38;;
75990;SDS011;64673;52.276;10.560;2022-11-20T07:33:36;13.18;;;5.88;;
75990;SDS011;64673;52.276;10.560;2022-11-20T07:36:02;14.15;;;5.18;;
75990;SDS011;64673;52.276;10.560;2022-11-20T07:38:27;10.85;;;4.97;;
75990;SDS011;64673;52.276;10.560;2022-11-20T07:40:53;14.95;;;5.72;;
75990;SDS011;64673;52.276;10.560;2022-11-20T07:43:20;13.90;;;6.53;;
75990;SDS011;64673;52.276;10.560;2022-11-20T07:45:45;11.68;;;5.38;;
75990;SDS011;64673;52.276;10.560;2022-11-20T07:48:11;13.38;;;5.28;;
75990;SDS011;64673;52.276;10.560;2022-11-20T07:50:36;11.83;;;5.73;;
75990;SDS011;64673;52.276;10.560;2022-11-20T07:53:02;13.02;;;5.30;;
75990;SDS011;64673;52.276;10.560;2022-11-20T07:55:29;12.25;;;5.38;;
75990;SDS011;64673;52.276;10.560;2022-11-20T07:57:55;14.50;;;5.68;;
75990;SDS011;64673;52.276;10.560;2022-11-20T08:00:21;10.50;;;5.22;;
75990;SDS011;64673;52.276;10.560;2022-11-20T08:02:47;13.00;;;5.65;;
75990;SDS011;64673;52.276;10.560;2022-11-20T08:05:12;14.48;;;6.53;;
75990;SDS011;64673;52.276;10.560;2022-11-20T08:07:38;11.90;;;5.35;;
75990;SDS011;64673;52.276;10.560;2022-11-20T08:10:04;11.45;;;4.93;;
75990;SDS011;64673;52.276;10.560;2022-11-20T08:12:30;9.20;;;4.70;;
75990;SDS011;64673;52.276;10.560;2022-11-20T08:15:14;11.10;;;5.10;;
75990;SDS011;64673;52.276;10.560;2022-11-20T08:17:40;13.38;;;5.18;;
75990;SDS011;64673;52.276;10.560;2022-11-20T08:20:05;11.60;;;4.85;;
75990;SDS011;64673;52.276;10.560;2022-11-20T08:22:31;12.45;;;4.95;;
75990;SDS011;64673;52.276;10.560;2022-11-20T08:24:57;10.77;;;5.03;;
75990;SDS011;64673;52.276;10.560;2022-11-20T08:27:22;10.43;;;4.85;;
75990;SDS011;64673;52.276;10.560;2022-11-20T08:29:48;9.85;;;4.85;;
75990;SDS011;64673;52.276;10.560;2022-11-20T08:32:13;11.43;;;4.65;;
75990;SDS011;64673;52.276;10.560;2022-11-20T08:34:38;13.13;;;5.57;;
75990;SDS011;64673;52.276;10.560;2022-11-20T08:37:04;10.07;;;4.82;;
75990;SDS011;64673;52.276;10.560;2022-11-20T08:39:29;11.98;;;5.30;;
75990;SDS011;64673;52.276;10.560;2022-11-20T08:41:54;8.57;;;4.53;;
75990;SDS011;64673;52.276;10.560;2022-11-20T08:44:20;9.40;;;4.47;;
75990;SDS011;64673;52.276;10.560;2022-11-20T08:46:45;9.63;;;4.68;;
75990;SDS011;64673;52.276;10.560;2022-11-20T08:49:12;11.52;;;5.03;;
75990;SDS011;64673;52.276;10.560;2022-11-20T08:51:39;8.88;;;4.45;;
75990;SDS011;64673;52.276;10.560;2022-11-20T08:54:05;11.80;;;5.15;;
75990;SDS011;64673;52.276;10.560;2022-11-20T08:56:31;10.98;;;4.30;;
75990;SDS011;64673;52.276;10.560;2022-11-20T08:58:57;13.02;;;5.18;;
75990;SDS011;64673;52.276;10.560;2022-11-20T09:01:24;9.25;;;4.30;;
75990;SDS011;64673;52.276;10.560;2022-11-20T09:03:50;10.70;;;4.82;;
75990;SDS011;64673;52.276;10.560;2022-11-20T09:06:16;10.65;;;4.80;;
75990;SDS011;64673;52.276;10.560;2022-11-20T09:08:42;9.95;;;4.85;;
75990;SDS011;64673;52.276;10.560;2022-11-20T09:11:07;11.75;;;5.10;;
75990;SDS011;64673;52.276;10.560;2022-11-20T09:13:34;11.77;;;4.82;;
75990;SDS011;64673;52.276;10.560;2022-11-20T09:16:04;11.18;;;4.95;;
75990;SDS011;64673;52.276;10.560;2022-11-20T09:18:32;23.95;;;9.90;;
75990;SDS011;64673;52.276;10.560;2022-11-20T09:20:59;10.07;;;4.75;;
75990;SDS011;64673;52.276;10.560;2022-11-20T09:23:25;10.75;;;4.50;;
75990;SDS011;64673;52.276;10.560;2022-11-20T09:25:51;10.23;;;4.38;;
75990;SDS011;64673;52.276;10.560;2022-11-20T09:28:17;10.30;;;4.55;;
75990;SDS011;64673;52.276;10.560;2022-11-20T09:30:43;14.88;;;5.68;;
75990;SDS011;64673;52.276;10.560;2022-11-20T09:33:09;11.27;;;4.95;;
75990;SDS011;64673;52.276;10.560;2022-11-20T09:35:34;10.68;;;5.25;;
75990;SDS011;64673;52.276;10.560;2022-11-20T09:38:03;8.60;;;4.28;;
75990;SDS011;64673;52.276;10.560;2022-11-20T09:40:32;9.70;;;4.53;;
75990;SDS011;64673;52.276;10.560;2022-11-20T09:43:06;13.48;;;5.43;;
75990;SDS011;64673;52.276;10.560;2022-11-20T09:54:19;11.35;;;4.93;;
75990;SDS011;64673;52.276;10.560;2022-11-20T10:02:24;9.10;;;4.57;;
75990;SDS011;64673;52.276;10.560;2022-11-20T10:04:59;8.43;;;4.40;;
75990;SDS011;64673;52.276;10.560;2022-11-20T10:10:04;9.13;;;4.53;;
75990;SDS011;64673;52.276;10.560;2022-11-20T10:12:41;10.30;;;4.85;;
75990;SDS011;64673;52.276;10.560;2022-11-20T10:15:25;9.98;;;3.92;;
75990;SDS011;64673;52.276;10.560;2022-11-20T10:18:33;8.52;;;4.60;;
75990;SDS011;64673;52.276;10.560;2022-11-20T10:21:15;11.35;;;4.05;;
75990;SDS011;64673;52.276;10.560;2022-11-20T10:24:07;9.82;;;4.55;;
75990;SDS011;64673;52.276;10.560;2022-11-20T10:27:03;8.88;;;4.35;;
75990;SDS011;64673;52.276;10.560;2022-11-20T10:29:38;9.48;;;4.63;;
75990;SDS011;64673;52.276;10.560;2022-11-20T10:32:10;8.80;;;4.20;;
75990;SDS011;64673;52.276;10.560;2022-11-20T10:37:18;10.43;;;4.35;;
75990;SDS011;64673;52.276;10.560;2022-11-20T10:42:29;8.73;;;3.63;;
75990;SDS011;64673;52.276;10.560;2022-11-20T10:45:02;8.73;;;4.03;;
75990;SDS011;64673;52.276;10.560;2022-11-20T10:47:41;8.63;;;3.85;;
75990;SDS011;64673;52.276;10.560;2022-11-20T10:50:09;8.63;;;3.72;;
75990;SDS011;64673;52.276;10.560;2022-11-20T10:58:22;9.52;;;4.13;;
75990;SDS011;64673;52.276;10.560;2022-11-20T11:03:39;10.48;;;4.47;;
75990;SDS011;64673;52.276;10.560;2022-11-20T11:06:08;13.23;;;4.88;;
75990;SDS011;64673;52.276;10.560;2022-11-20T11:08:42;12.90;;;5.00;;
75990;SDS011;64673;52.276;10.560;2022-11-20T11:13:51;8.98;;;3.92;;
75990;SDS011;64673;52.276;10.560;2022-11-20T11:16:26;9.05;;;4.32;;
75990;SDS011;64673;52.276;10.560;2022-11-20T11:19:02;9.40;;;4.72;;
75990;SDS011;64673;52.276;10.560;2022-11-20T11:21:31;10.63;;;4.95;;
75990;SDS011;64673;52.276;10.560;2022-11-20T11:24:01;9.38;;;4.25;;
75990;SDS011;64673;52.276;10.560;2022-11-20T11:26:29;10.32;;;4.70;;
75990;SDS011;64673;52.276;10.560;2022-11-20T11:31:28;12.73;;;5.00;;
75990;SDS011;64673;52.276;10.560;2022-11-20T11:34:07;9.95;;;4.72;;
75990;SDS011;64673;52.276;10.560;2022-11-20T11:36:37;9.43;;;4.88;;
75990;SDS011;64673;52.276;10.560;2022-11-20T11:39:04;11.55;;;5.05;;
75990;SDS011;64673;52.276;10.560;2022-11-20T11:41:36;8.82;;;3.67;;
75990;SDS011;64673;52.276;10.560;2022-11-20T11:44:19;9.57;;;4.18;;
75990;SDS011;64673;52.276;10.560;2022-11-20T11:47:06;11.77;;;4.45;;
75990;SDS011;64673;52.276;10.560;2022-11-20T11:49:46;7.88;;;3.90;;
75990;SDS011;64673;52.276;10.560;2022-11-20T11:54:54;10.70;;;4.60;;
75990;SDS011;64673;52.276;10.560;2022-11-20T12:00:00;8.02;;;3.88;;
75990;SDS011;64673;52.276;10.560;2022-11-20T12:02:46;9.07;;;3.90;;
75990;SDS011;64673;52.276;10.560;2022-11-20T12:18:20;10.10;;;4.22;;
75990;SDS011;64673;52.276;10.560;2022-11-20T12:24:00;8.10;;;3.80;;
75990;SDS011;64673;52.276;10.560;2022-11-20T12:34:44;6.55;;;3.15;;
75990;SDS011;64673;52.276;10.560;2022-11-20T12:39:49;9.85;;;3.92;;
75990;SDS011;64673;52.276;10.560;2022-11-20T13:08:11;8.25;;;3.85;;
75990;SDS011;64673;52.276;10.560;2022-11-20T13:16:24;9.60;;;4.10;;
75990;SDS011;64673;52.276;10.560;2022-11-20T13:19:02;7.03;;;3.38;;
75990;SDS011;64673;52.276;10.560;2022-11-20T13:26:48;8.38;;;4.05;;
75990;SDS011;64673;52.276;10.560;2022-11-20T13:29:24;7.55;;;3.50;;
75990;SDS011;64673;52.276;10.560;2022-11-20T13:32:00;8.23;;;3.83;;
75990;SDS011;64673;52.276;10.560;2022-11-20T13:34:28;7.78;;;3.85;;
75990;SDS011;64673;52.276;10.560;2022-11-20T13:36:56;6.80;;;4.05;;
75990;SDS011;64673;52.276;10.560;2022-11-20T13:42:19;9.55;;;3.53;;
75990;SDS011;64673;52.276;10.560;2022-11-20T13:44:47;7.45;;;3.83;;
75990;SDS011;64673;52.276;10.560;2022-11-20T13:47:26;11.43;;;4.53;;
75990;SDS011;64673;52.276;10.560;2022-11-20T13:49:52;8.05;;;4.10;;
75990;SDS011;64673;52.276;10.560;2022-11-20T13:55:18;8.77;;;4.28;;
75990;SDS011;64673;52.276;10.560;2022-11-20T14:00:33;8.30;;;3.65;;
75990;SDS011;64673;52.276;10.560;2022-11-20T14:05:36;10.38;;;4.38;;
75990;SDS011;64673;52.276;10.560;2022-11-20T14:08:05;9.07;;;4.32;;
75990;SDS011;64673;52.276;10.560;2022-11-20T14:10:36;9.82;;;4.68;;
75990;SDS011;64673;52.276;10.560;2022-11-20T14:13:12;11.38;;;5.00;;
75990;SDS011;64673;52.276;10.560;2022-11-20T14:15:43;11.52;;;4.65;;
75990;SDS011;64673;52.276;10.560;2022-11-20T14:18:12;9.43;;;4.72;;
75990;SDS011;64673;52.276;10.560;2022-11-20T14:20:40;8.65;;;4.35;;
75990;SDS011;64673;52.276;10.560;2022-11-20T14:23:08;14.05;;;4.50;;
75990;SDS011;64673;52.276;10.560;2022-11-20T14:25:35;7.75;;;4.20;;
75990;SDS011;64673;52.276;10.560;2022-11-20T14:28:01;8.15;;;3.85;;
75990;SDS011;64673;52.276;10.560;2022-11-20T14:30:39;11.32;;;4.65;;
75990;SDS011;64673;52.276;10.560;2022-11-20T14:33:09;10.23;;;4.40;;
75990;SDS011;64673;52.276;10.560;2022-11-20T14:35:40;8.52;;;4.28;;
75990;SDS011;64673;52.276;10.560;2022-11-20T14:38:12;6.75;;;4.00;;
75990;SDS011;64673;52.276;10.560;2022-11-20T14:40:40;11.70;;;4.50;;
75990;SDS011;64673;52.276;10.560;2022-11-20T14:43:17;9.50;;;4.45;;
75990;SDS011;64673;52.276;10.560;2022-11-20T14:46:05;7.25;;;3.60;;
75990;SDS011;64673;52.276;10.560;2022-11-20T14:51:31;9.85;;;4.13;;
75990;SDS011;64673;52.276;10.560;2022-11-20T14:54:07;10.10;;;4.15;;
75990;SDS011;64673;52.276;10.560;2022-11-20T14:56:40;9.15;;;4.82;;
75990;SDS011;64673;52.276;10.560;2022-11-20T14:59:05;11.45;;;4.93;;
75990;SDS011;64673;52.276;10.560;2022-11-20T15:01:33;9.43;;;4.35;;
75990;SDS011;64673;52.276;10.560;2022-11-20T15:04:17;10.02;;;5.15;;
75990;SDS011;64673;52.276;10.560;2022-11-20T15:06:49;9.32;;;4.68;;
75990;SDS011;64673;52.276;10.560;2022-11-20T15:09:16;14.27;;;6.32;;
75990;SDS011;64673;52.276;10.560;2022-11-20T15:11:49;12.50;;;5.78;;
75990;SDS011;64673;52.276;10.560;2022-11-20T15:14:19;9.00;;;3.75;;
75990;SDS011;64673;52.276;10.560;2022-11-20T15:16:44;9.73;;;4.53;;
75990;SDS011;64673;52.276;10.560;2022-11-20T15:19:20;13.57;;;5.85;;
75990;SDS011;64673;52.276;10.560;2022-11-20T15:21:50;11.73;;;5.05;;
75990;SDS011;64673;52.276;10.560;2022-11-20T15:24:16;11.40;;;5.05;;
75990;SDS011;64673;52.276;10.560;2022-11-20T15:26:42;10.27;;;5.07;;
75990;SDS011;64673;52.276;10.560;2022-11-20T15:29:11;11.13;;;5.25;;
75990;SDS011;64673;52.276;10.560;2022-11-20T15:31:38;10.63;;;5.07;;
75990;SDS011;64673;52.276;10.560;2022-11-20T15:34:11;9.73;;;5.07;;
75990;SDS011;64673;52.276;10.560;2022-11-20T15:36:39;12.05;;;5.38;;
75990;SDS011;64673;52.276;10.560;2022-11-20T15:39:05;12.18;;;5.18;;
75990;SDS011;64673;52.276;10.560;2022-11-20T15:41:32;10.60;;;4.88;;
75990;SDS011;64673;52.276;10.560;2022-11-20T15:43:58;9.02;;;4.60;;
75990;SDS011;64673;52.276;10.560;2022-11-20T15:46:26;10.40;;;4.95;;
75990;SDS011;64673;52.276;10.560;2022-11-20T15:48:56;9.63;;;4.63;;
75990;SDS011;64673;52.276;10.560;2022-11-20T15:53:51;11.27;;;5.55;;
75990;SDS011;64673;52.276;10.560;2022-11-20T15:56:17;13.13;;;5.25;;
75990;SDS011;64673;52.276;10.560;2022-11-20T15:58:42;10.98;;;5.18;;
75990;SDS011;64673;52.276;10.560;2022-11-20T16:01:11;12.02;;;5.70;;
75990;SDS011;64673;52.276;10.560;2022-11-20T16:03:39;11.63;;;5.88;;
75990;SDS011;64673;52.276;10.560;2022-11-20T16:06:05;13.07;;;5.50;;
75990;SDS011;64673;52.276;10.560;2022-11-20T16:08:30;13.23;;;5.63;;
75990;SDS011;64673;52.276;10.560;2022-11-20T16:10:56;12.27;;;5.38;;
75990;SDS011;64673;52.276;10.560;2022-11-20T16:13:21;12.63;;;5.43;;
75990;SDS011;64673;52.276;10.560;2022-11-20T16:16:06;12.73;;;5.75;;
75990;SDS011;64673;52.276;10.560;2022-11-20T16:18:36;11.45;;;5.43;;
75990;SDS011;64673;52.276;10.560;2022-11-20T16:21:01;11.45;;;5.07;;
75990;SDS011;64673;52.276;10.560;2022-11-20T16:23:27;13.73;;;4.75;;
75990;SDS011;64673;52.276;10.560;2022-11-20T16:25:53;11.65;;;5.40;;
75990;SDS011;64673;52.276;10.560;2022-11-20T16:28:18;14.02;;;5.78;;
75990;SDS011;64673;52.276;10.560;2022-11-20T16:30:44;14.85;;;6.05;;
75990;SDS011;64673;52.276;10.560;2022-11-20T16:33:11;13.18;;;5.65;;
75990;SDS011;64673;52.276;10.560;2022-11-20T16:35:38;13.23;;;6.30;;
75990;SDS011;64673;52.276;10.560;2022-11-20T16:38:04;15.43;;;5.90;;
75990;SDS011;64673;52.276;10.560;2022-11-20T16:40:29;15.50;;;5.75;;
75990;SDS011;64673;52.276;10.560;2022-11-20T16:42:54;12.70;;;5.65;;